Time;durP1;ratioP1;P1;durP2;ratioP2;P2;SDS_P1;SDS_P2;PMS_P1;PMS_P2;Temp;Humidity;BMP_temperature;BMP_pressure;BME280_temperature;BME280_humidity;BME280_pressure;Samples;Min_cycle;Max_cycle;Signal;HPM_P1;HPM_P2
2022/07/16 00:02:16;;;;;;;8.65;2.90;;;15.60;99.90;;;;;;5004518;28;20100;-95
2022/07/16 00:04:42;;;;;;;7.82;2.70;;;15.50;99.90;;;;;;4974317;28;20042;-93
2022/07/16 00:07:08;;;;;;;7.30;2.63;;;15.60;99.90;;;;;;4960311;28;20458;-94
2022/07/16 00:09:34;;;;;;;10.30;2.97;;;15.50;99.90;;;;;;4972190;28;20046;-96
2022/07/16 00:12:00;;;;;;;8.50;2.90;;;15.50;99.90;;;;;;4971307;28;20080;-95
2022/07/16 00:14:25;;;;;;;7.15;2.70;;;15.50;99.90;;;;;;4980078;28;20579;-95
2022/07/16 00:16:51;;;;;;;7.97;2.40;;;15.50;99.90;;;;;;4965495;28;20525;-96
2022/07/16 00:19:18;;;;;;;6.45;2.50;;;15.50;99.90;;;;;;5008149;28;20052;-93
2022/07/16 00:21:49;;;;;;;8.35;2.67;;;15.60;99.90;;;;;;4984497;28;20069;-94
2022/07/16 00:24:16;;;;;;;9.52;2.80;;;15.60;99.90;;;;;;4978631;28;20041;-93
2022/07/16 00:26:43;;;;;;;8.23;3.08;;;15.60;99.90;;;;;;4979777;28;20084;-93
2022/07/16 00:29:09;;;;;;;7.22;2.85;;;15.60;99.90;;;;;;4991853;28;20046;-93
2022/07/16 00:31:35;;;;;;;7.10;2.70;;;15.70;99.90;;;;;;4975839;28;20124;-95
2022/07/16 00:34:04;;;;;;;7.20;2.63;;;15.70;99.90;;;;;;4975252;28;20042;-93
2022/07/16 00:36:29;;;;;;;8.35;2.90;;;15.70;99.90;;;;;;4991286;28;20046;-93
2022/07/16 00:38:55;;;;;;;10.40;3.28;;;15.70;99.90;;;;;;4990536;28;20116;-93
2022/07/16 00:41:21;;;;;;;9.63;2.90;;;15.70;99.90;;;;;;5023150;28;20124;-92
2022/07/16 00:43:58;;;;;;;8.75;3.17;;;15.60;99.90;;;;;;4980142;28;20088;-91
2022/07/16 00:46:24;;;;;;;9.13;2.95;;;15.60;99.90;;;;;;4999984;28;20099;-89
2022/07/16 00:48:50;;;;;;;6.93;2.60;;;15.50;99.90;;;;;;4965988;28;20038;-90
2022/07/16 00:51:16;;;;;;;7.97;2.92;;;15.40;99.90;;;;;;4983437;28;20045;-91
2022/07/16 00:53:43;;;;;;;4.82;1.95;;;15.40;99.90;;;;;;5002016;28;20128;-91
2022/07/16 00:56:13;;;;;;;7.75;2.08;;;15.30;99.90;;;;;;4956695;28;20407;-90
2022/07/16 00:58:40;;;;;;;7.45;2.15;;;15.30;99.90;;;;;;4973027;28;20060;-91
2022/07/16 01:01:06;;;;;;;5.03;1.92;;;15.30;99.90;;;;;;4986807;28;20037;-92
2022/07/16 01:03:33;;;;;;;7.43;1.90;;;15.20;99.90;;;;;;4979203;28;20041;-91
2022/07/16 01:05:59;;;;;;;7.22;2.13;;;15.30;99.90;;;;;;4967618;28;20046;-91
2022/07/16 01:08:26;;;;;;;6.93;2.20;;;15.20;99.90;;;;;;4977650;28;20049;-91
2022/07/16 01:10:54;;;;;;;5.88;1.95;;;15.20;99.90;;;;;;4994509;28;20117;-90
2022/07/16 01:13:21;;;;;;;5.70;1.90;;;15.20;99.90;;;;;;4971117;28;20038;-90
2022/07/16 01:15:48;;;;;;;4.68;1.63;;;15.30;99.90;;;;;;4950073;28;20591;-90
2022/07/16 01:18:13;;;;;;;5.80;1.80;;;15.30;99.90;;;;;;4973452;28;20049;-91
2022/07/16 01:20:39;;;;;;;6.25;2.00;;;15.30;99.90;;;;;;4960191;28;20042;-90
2022/07/16 01:23:05;;;;;;;7.32;2.00;;;15.30;99.90;;;;;;4950552;28;20499;-90
2022/07/16 01:25:32;;;;;;;4.72;1.60;;;15.30;99.90;;;;;;4972383;28;20038;-91
2022/07/16 01:27:58;;;;;;;5.75;1.75;;;15.30;99.90;;;;;;4985243;28;20089;-91
2022/07/16 01:30:24;;;;;;;6.13;1.80;;;15.30;99.90;;;;;;4986869;28;20038;-90
2022/07/16 01:32:50;;;;;;;6.32;1.67;;;15.30;99.90;;;;;;4988352;28;20529;-90
2022/07/16 01:35:15;;;;;;;6.85;1.90;;;15.30;99.90;;;;;;4996242;28;20042;-90
2022/07/16 01:37:41;;;;;;;5.22;1.45;;;15.30;99.90;;;;;;4995670;28;20034;-91
2022/07/16 01:40:07;;;;;;;9.18;1.83;;;15.20;99.90;;;;;;4960981;28;20093;-91
2022/07/16 01:42:33;;;;;;;6.60;1.75;;;15.20;99.90;;;;;;4955547;28;20545;-90
2022/07/16 01:45:00;;;;;;;7.20;1.70;;;15.30;99.90;;;;;;4970186;28;20050;-90
2022/07/16 01:47:25;;;;;;;7.20;2.08;;;15.20;99.90;;;;;;4984558;28;20042;-91
2022/07/16 01:49:51;;;;;;;5.18;1.85;;;15.20;99.90;;;;;;4998592;28;20538;-90
2022/07/16 01:52:19;;;;;;;9.23;1.77;;;15.20;99.90;;;;;;4963238;28;20038;-91
2022/07/16 01:54:50;;;;;;;11.50;2.17;;;15.30;99.90;;;;;;4961696;28;20099;-91
2022/07/16 01:57:18;;;;;;;6.68;1.80;;;15.30;99.90;;;;;;4984304;28;20038;-91
2022/07/16 01:59:44;;;;;;;6.05;1.75;;;15.30;99.90;;;;;;4979946;28;20509;-91
2022/07/16 02:02:11;;;;;;;6.97;1.65;;;15.30;99.90;;;;;;4960466;28;20053;-91
2022/07/16 02:04:37;;;;;;;7.38;1.80;;;15.30;99.90;;;;;;4973122;28;20057;-91
2022/07/16 02:07:04;;;;;;;7.53;1.85;;;15.20;99.90;;;;;;4962707;28;20121;-90
2022/07/16 02:09:34;;;;;;;10.52;1.85;;;15.20;99.90;;;;;;4958005;28;20224;-91
2022/07/16 02:12:00;;;;;;;7.90;1.90;;;15.20;99.90;;;;;;4995846;28;20046;-90
2022/07/16 02:14:26;;;;;;;6.80;2.05;;;15.20;99.90;;;;;;4978996;28;20034;-91
2022/07/16 02:16:52;;;;;;;8.27;1.90;;;15.20;99.90;;;;;;4988135;28;20256;-91
2022/07/16 02:19:18;;;;;;;6.63;1.90;;;15.10;99.90;;;;;;4979204;28;20038;-91
2022/07/16 02:21:43;;;;;;;6.93;1.90;;;15.10;99.90;;;;;;4956758;28;20038;-90
2022/07/16 02:24:09;;;;;;;6.43;2.03;;;15.10;99.90;;;;;;4967302;28;20061;-91
2022/07/16 02:26:35;;;;;;;9.73;1.90;;;15.10;99.90;;;;;;4973958;28;20046;-90
2022/07/16 02:29:00;;;;;;;7.68;1.95;;;14.90;99.90;;;;;;4941758;28;20070;-92
2022/07/16 02:31:26;;;;;;;7.25;1.90;;;15.00;99.90;;;;;;4964723;28;20089;-91
2022/07/16 02:33:52;;;;;;;7.07;1.90;;;14.90;99.90;;;;;;4970868;28;20049;-91
2022/07/16 02:36:17;;;;;;;6.78;1.90;;;14.90;99.90;;;;;;4996527;28;20045;-91
2022/07/16 02:38:43;;;;;;;7.05;1.75;;;14.80;99.90;;;;;;4956759;28;20086;-91
2022/07/16 02:41:09;;;;;;;7.50;1.83;;;14.80;99.90;;;;;;4956824;28;20087;-92
2022/07/16 02:43:35;;;;;;;6.63;2.00;;;14.70;99.90;;;;;;4980247;28;20050;-90
2022/07/16 02:46:01;;;;;;;6.43;1.95;;;14.60;99.90;;;;;;4977217;28;20050;-91
2022/07/16 02:48:27;;;;;;;7.75;2.10;;;14.60;99.90;;;;;;4998695;28;20053;-91
2022/07/16 02:50:54;;;;;;;5.43;1.73;;;14.50;99.90;;;;;;4990403;28;20037;-91
2022/07/16 02:53:20;;;;;;;8.25;2.00;;;14.50;99.90;;;;;;4960616;28;20030;-91
2022/07/16 02:55:46;;;;;;;7.63;1.85;;;14.50;99.90;;;;;;4950179;28;20486;-92
2022/07/16 02:58:12;;;;;;;5.30;1.50;;;14.40;99.90;;;;;;4978349;28;20039;-92
2022/07/16 03:00:37;;;;;;;9.15;2.67;;;14.40;99.90;;;;;;4985623;28;20510;-91
2022/07/16 03:03:03;;;;;;;10.63;2.20;;;14.40;99.90;;;;;;4980884;28;20069;-92
2022/07/16 03:05:29;;;;;;;6.80;1.70;;;14.40;99.90;;;;;;4946840;28;20510;-92
2022/07/16 03:07:55;;;;;;;5.40;1.80;;;14.40;99.90;;;;;;4969979;28;20309;-91
2022/07/16 03:10:20;;;;;;;9.38;2.20;;;14.40;99.90;;;;;;4971128;28;20034;-92
2022/07/16 03:12:46;;;;;;;7.75;1.98;;;14.40;99.90;;;;;;4967359;28;20061;-92
2022/07/16 03:15:12;;;;;;;8.13;1.95;;;14.40;99.90;;;;;;4968441;28;20033;-92
2022/07/16 03:17:39;;;;;;;5.93;1.90;;;14.40;99.90;;;;;;5002418;28;20038;-91
2022/07/16 03:20:05;;;;;;;7.00;2.00;;;14.30;99.90;;;;;;4976584;28;20049;-91
2022/07/16 03:22:31;;;;;;;7.25;2.17;;;14.30;99.90;;;;;;4984254;28;20101;-92
2022/07/16 03:24:57;;;;;;;7.07;1.90;;;14.30;99.90;;;;;;4980140;28;20049;-92
2022/07/16 03:27:22;;;;;;;7.32;2.13;;;14.30;99.90;;;;;;4968605;28;20205;-92
2022/07/16 03:29:48;;;;;;;8.13;2.10;;;14.30;99.90;;;;;;4994265;28;20074;-91
2022/07/16 03:32:14;;;;;;;7.15;1.90;;;14.30;99.90;;;;;;4991259;28;20521;-92
2022/07/16 03:34:39;;;;;;;7.10;1.90;;;14.20;99.90;;;;;;4979239;28;20180;-92
2022/07/16 03:37:05;;;;;;;7.93;2.10;;;14.20;99.90;;;;;;4967871;28;20039;-93
2022/07/16 03:39:31;;;;;;;9.60;2.35;;;14.20;99.90;;;;;;4971612;28;20073;-92
2022/07/16 03:41:56;;;;;;;7.28;2.33;;;14.20;99.90;;;;;;4983763;28;20033;-92
2022/07/16 03:44:22;;;;;;;7.20;1.88;;;14.20;99.90;;;;;;4962506;28;20071;-93
2022/07/16 03:46:48;;;;;;;7.75;2.38;;;14.20;99.90;;;;;;4967752;28;20124;-92
2022/07/16 03:49:13;;;;;;;7.28;1.90;;;14.20;99.90;;;;;;4961871;28;20316;-92
2022/07/16 03:51:39;;;;;;;7.38;2.10;;;14.20;99.90;;;;;;4977023;28;20054;-92
2022/07/16 03:54:05;;;;;;;7.75;2.20;;;14.20;99.90;;;;;;4965103;28;20072;-94
2022/07/16 03:56:32;;;;;;;7.00;2.10;;;14.30;99.90;;;;;;4976480;28;20037;-94
2022/07/16 03:58:58;;;;;;;7.07;2.00;;;14.30;99.90;;;;;;4976455;28;20039;-93
2022/07/16 04:01:24;;;;;;;7.55;2.30;;;14.30;99.90;;;;;;4995653;28;20048;-92
2022/07/16 04:03:50;;;;;;;7.53;2.00;;;14.30;99.90;;;;;;4962954;28;20125;-93
2022/07/16 04:06:16;;;;;;;9.18;2.42;;;14.30;99.90;;;;;;4959901;28;20116;-93
2022/07/16 04:08:42;;;;;;;11.20;2.33;;;14.40;99.90;;;;;;4986129;28;20038;-93
2022/07/16 04:11:08;;;;;;;8.70;2.22;;;14.40;99.90;;;;;;4961986;28;20582;-92
2022/07/16 04:13:37;;;;;;;9.30;2.47;;;14.30;99.90;;;;;;4960287;28;20361;-94
2022/07/16 04:16:03;;;;;;;7.53;2.10;;;14.40;99.90;;;;;;4979561;28;20033;-94
2022/07/16 04:18:29;;;;;;;8.85;2.60;;;14.40;99.90;;;;;;4962073;28;20038;-94
2022/07/16 04:20:54;;;;;;;8.90;2.25;;;14.40;99.90;;;;;;4962337;28;20133;-91
2022/07/16 04:23:20;;;;;;;8.98;2.40;;;14.40;99.90;;;;;;4960967;28;20449;-92
2022/07/16 04:25:46;;;;;;;7.60;2.38;;;14.40;99.90;;;;;;4947759;28;20088;-92
2022/07/16 04:28:12;;;;;;;8.95;2.20;;;14.40;99.90;;;;;;4944226;28;20129;-93
2022/07/16 04:30:37;;;;;;;10.73;2.30;;;14.40;99.90;;;;;;4955619;28;20042;-94
2022/07/16 04:33:03;;;;;;;11.38;2.30;;;14.50;99.90;;;;;;4963041;28;20045;-93
2022/07/16 04:35:29;;;;;;;6.13;1.90;;;14.40;99.90;;;;;;4975452;28;20457;-92
2022/07/16 04:37:55;;;;;;;9.82;2.30;;;14.40;99.90;;;;;;4980933;28;20038;-93
2022/07/16 04:40:20;;;;;;;9.48;2.10;;;14.50;99.90;;;;;;4971801;28;20205;-93
2022/07/16 04:42:46;;;;;;;8.15;2.22;;;14.60;99.90;;;;;;4973424;28;20073;-93
2022/07/16 04:45:12;;;;;;;8.32;2.38;;;14.70;99.90;;;;;;4971338;28;20039;-93
2022/07/16 04:47:39;;;;;;;10.82;2.20;;;14.70;99.90;;;;;;4965422;28;20042;-93
2022/07/16 04:50:06;;;;;;;8.20;2.10;;;14.80;99.90;;;;;;4970697;28;20042;-93
2022/07/16 04:52:31;;;;;;;7.70;2.00;;;14.80;99.90;;;;;;4988836;28;20038;-93
2022/07/16 04:54:58;;;;;;;8.65;2.00;;;14.80;99.90;;;;;;4979512;28;20161;-92
2022/07/16 04:57:24;;;;;;;10.55;2.03;;;14.90;99.90;;;;;;4992015;28;20192;-93
2022/07/16 04:59:51;;;;;;;10.38;2.03;;;15.00;99.90;;;;;;4970241;28;20137;-92
2022/07/16 05:05:01;;;;;;;6.78;1.70;;;15.20;99.90;;;;;;4987755;28;20078;-92
2022/07/16 05:07:27;;;;;;;9.48;1.80;;;15.20;99.90;;;;;;4950948;28;20083;-94
2022/07/16 05:09:53;;;;;;;8.90;1.88;;;15.20;99.90;;;;;;4975167;28;20053;-92
2022/07/16 05:12:19;;;;;;;8.73;2.00;;;15.30;99.90;;;;;;4955669;28;20130;-92
2022/07/16 05:14:44;;;;;;;7.47;2.03;;;15.40;99.90;;;;;;4955058;28;20046;-92
2022/07/16 05:17:10;;;;;;;6.00;1.40;;;15.50;99.90;;;;;;4979646;28;20046;-92
2022/07/16 05:19:36;;;;;;;7.15;1.95;;;15.50;99.90;;;;;;4959388;28;20598;-93
2022/07/16 05:22:02;;;;;;;7.38;1.65;;;15.50;99.90;;;;;;4957438;28;20043;-94
2022/07/16 05:24:27;;;;;;;8.48;1.83;;;15.60;99.90;;;;;;4956073;28;20046;-92
2022/07/16 05:26:53;;;;;;;11.00;2.08;;;15.60;99.90;;;;;;4958013;28;20049;-93
2022/07/16 05:29:19;;;;;;;11.80;1.85;;;15.50;99.90;;;;;;4975381;28;20568;-93
2022/07/16 05:31:44;;;;;;;11.38;1.98;;;15.60;99.90;;;;;;5006573;28;20146;-92
2022/07/16 05:34:10;;;;;;;7.05;1.85;;;15.70;99.90;;;;;;4974028;28;20043;-94
2022/07/16 05:36:36;;;;;;;9.45;1.50;;;15.60;99.90;;;;;;4977867;28;20193;-93
2022/07/16 05:39:01;;;;;;;8.93;1.70;;;15.60;99.90;;;;;;4969509;28;20076;-92
2022/07/16 05:41:27;;;;;;;8.00;1.70;;;15.60;99.90;;;;;;4961563;28;20046;-92
2022/07/16 05:43:53;;;;;;;8.15;2.10;;;15.70;99.90;;;;;;4975207;28;20080;-93
2022/07/16 05:46:18;;;;;;;5.57;1.70;;;15.80;99.90;;;;;;4992365;28;20114;-94
2022/07/16 05:48:44;;;;;;;9.65;2.08;;;15.90;99.90;;;;;;4964013;28;20043;-93
2022/07/16 05:51:10;;;;;;;6.97;1.73;;;15.90;99.90;;;;;;4953336;28;20050;-93
2022/07/16 05:53:38;;;;;;;6.85;2.03;;;16.00;99.90;;;;;;4975355;28;20491;-94
2022/07/16 05:56:04;;;;;;;10.38;1.88;;;15.90;99.90;;;;;;4990366;28;20096;-93
2022/07/16 05:58:30;;;;;;;5.50;1.80;;;15.90;99.90;;;;;;4962250;28;20122;-93
2022/07/16 06:00:56;;;;;;;9.35;1.70;;;15.80;99.90;;;;;;4950288;28;20038;-93
2022/07/16 06:03:21;;;;;;;8.10;1.60;;;15.70;99.90;;;;;;4964008;28;20052;-93
2022/07/16 06:05:47;;;;;;;9.02;1.65;;;15.70;99.90;;;;;;4958795;28;20307;-92
2022/07/16 06:08:13;;;;;;;7.60;1.40;;;15.60;99.90;;;;;;4971526;28;20048;-94
2022/07/16 06:10:38;;;;;;;10.85;1.70;;;15.50;99.90;;;;;;4961654;28;20089;-92
2022/07/16 06:13:04;;;;;;;8.93;1.90;;;15.50;99.90;;;;;;4949036;28;20095;-94
2022/07/16 06:15:30;;;;;;;8.95;1.70;;;15.60;99.90;;;;;;4965549;28;20057;-93
2022/07/16 06:17:55;;;;;;;5.68;1.52;;;15.60;99.90;;;;;;4983089;28;20042;-93
2022/07/16 06:20:22;;;;;;;7.10;1.65;;;15.70;99.90;;;;;;4957732;28;20570;-92
2022/07/16 06:22:48;;;;;;;7.38;1.73;;;15.80;99.90;;;;;;4962064;28;20494;-93
2022/07/16 06:25:15;;;;;;;9.68;1.95;;;15.80;99.90;;;;;;4971447;28;20050;-93
2022/07/16 06:27:44;;;;;;;7.18;1.30;;;16.00;99.90;;;;;;4980632;28;20042;-93
2022/07/16 06:30:10;;;;;;;7.65;1.50;;;16.00;99.90;;;;;;4974783;28;20521;-93
2022/07/16 06:32:36;;;;;;;7.18;1.40;;;16.10;99.90;;;;;;4982473;28;20034;-93
2022/07/16 06:35:02;;;;;;;6.82;1.40;;;16.10;99.90;;;;;;4951882;28;20045;-93
2022/07/16 06:37:28;;;;;;;7.30;1.67;;;16.20;99.90;;;;;;4973899;28;20038;-92
2022/07/16 06:39:54;;;;;;;6.00;1.27;;;16.20;99.90;;;;;;4973799;28;20046;-92
2022/07/16 06:42:19;;;;;;;7.43;2.08;;;16.30;99.90;;;;;;4953762;28;20034;-93
2022/07/16 06:44:45;;;;;;;6.68;1.38;;;16.40;99.90;;;;;;4979111;28;20050;-94
2022/07/16 06:47:11;;;;;;;8.77;1.90;;;16.40;99.90;;;;;;4972715;28;20507;-93
2022/07/16 06:49:36;;;;;;;8.32;1.50;;;16.50;99.90;;;;;;4959862;28;20077;-94
2022/07/16 06:52:02;;;;;;;8.15;2.15;;;16.50;99.90;;;;;;4956519;28;20068;-93
2022/07/16 06:54:28;;;;;;;5.82;1.27;;;16.50;99.90;;;;;;4973544;28;20069;-94
2022/07/16 06:56:54;;;;;;;6.50;1.50;;;16.60;99.90;;;;;;4990390;28;20048;-94
2022/07/16 06:59:19;;;;;;;7.38;1.40;;;16.70;99.90;;;;;;4948429;28;20073;-93
2022/07/16 07:01:45;;;;;;;7.50;1.80;;;16.70;99.90;;;;;;4952714;28;20080;-93
2022/07/16 07:04:11;;;;;;;6.25;1.70;;;16.80;99.90;;;;;;4984787;28;20042;-93
2022/07/16 07:06:36;;;;;;;6.05;1.40;;;16.80;99.90;;;;;;4956965;28;20038;-94
2022/07/16 07:09:02;;;;;;;8.88;1.60;;;16.80;99.90;;;;;;4954025;28;20066;-92
2022/07/16 07:11:28;;;;;;;5.13;1.35;;;16.90;99.90;;;;;;4991855;28;20084;-94
2022/07/16 07:13:54;;;;;;;5.50;1.45;;;16.90;99.90;;;;;;4973920;28;20101;-92
2022/07/16 07:16:19;;;;;;;6.25;1.40;;;16.90;99.90;;;;;;4962485;28;20077;-92
2022/07/16 07:18:45;;;;;;;7.00;1.25;;;17.10;99.90;;;;;;4973639;28;20105;-93
2022/07/16 07:21:11;;;;;;;8.07;1.50;;;17.20;99.90;;;;;;4990453;28;20044;-92
2022/07/16 07:23:37;;;;;;;6.40;1.40;;;17.30;99.90;;;;;;4957146;28;20042;-93
2022/07/16 07:26:02;;;;;;;6.45;1.25;;;17.30;99.90;;;;;;4956093;28;20042;-94
2022/07/16 07:28:28;;;;;;;6.57;1.50;;;17.20;99.90;;;;;;4974617;28;20047;-94
2022/07/16 07:30:56;;;;;;;6.75;1.65;;;17.20;99.90;;;;;;4972258;28;20041;-94
2022/07/16 07:33:22;;;;;;;4.50;1.25;;;17.30;99.90;;;;;;4989522;28;20521;-91
2022/07/16 07:35:48;;;;;;;6.22;1.33;;;17.40;99.90;;;;;;4974931;28;20117;-93
2022/07/16 07:38:14;;;;;;;5.93;1.33;;;17.50;99.90;;;;;;4979633;28;20137;-92
2022/07/16 07:40:40;;;;;;;3.38;1.10;;;17.50;99.90;;;;;;4955304;28;20049;-95
2022/07/16 07:43:05;;;;;;;5.22;1.40;;;17.60;99.90;;;;;;4966009;28;20038;-94
2022/07/16 07:45:31;;;;;;;5.38;1.20;;;17.70;99.90;;;;;;4974671;28;20042;-93
2022/07/16 07:47:58;;;;;;;4.70;1.10;;;17.80;99.90;;;;;;4958089;28;20047;-93
2022/07/16 07:50:23;;;;;;;4.25;1.25;;;17.70;99.90;;;;;;4990002;28;20046;-93
2022/07/16 07:52:49;;;;;;;4.55;1.33;;;17.70;99.90;;;;;;4991404;28;20046;-94
2022/07/16 07:55:15;;;;;;;3.75;1.00;;;17.60;99.90;;;;;;4975784;28;20035;-93
2022/07/16 07:57:41;;;;;;;6.50;1.33;;;17.50;99.90;;;;;;4970816;28;20050;-92
2022/07/16 08:00:09;;;;;;;5.32;1.30;;;17.40;99.90;;;;;;4972148;28;20045;-93
2022/07/16 08:02:35;;;;;;;8.55;1.50;;;17.30;99.90;;;;;;4997118;28;20046;-94
2022/07/16 08:05:01;;;;;;;9.63;1.77;;;17.20;99.90;;;;;;4963782;28;20049;-93
2022/07/16 08:07:27;;;;;;;9.27;2.05;;;17.10;99.90;;;;;;4963756;28;20041;-94
2022/07/16 08:09:53;;;;;;;6.07;1.30;;;17.10;99.90;;;;;;4985938;28;20038;-93
2022/07/16 08:12:19;;;;;;;6.70;1.67;;;17.10;99.90;;;;;;4965488;28;20050;-93
2022/07/16 08:14:44;;;;;;;9.30;1.70;;;17.00;99.90;;;;;;4958079;28;20384;-92
2022/07/16 08:17:10;;;;;;;8.85;1.73;;;17.00;99.90;;;;;;4942244;28;20044;-94
2022/07/16 08:19:36;;;;;;;8.55;1.70;;;17.00;99.90;;;;;;4940798;28;20046;-94
2022/07/16 08:22:02;;;;;;;6.10;1.50;;;17.10;99.90;;;;;;4983467;28;20376;-92
2022/07/16 08:27:14;;;;;;;6.38;1.45;;;17.20;99.90;;;;;;4993902;28;20042;-92
2022/07/16 08:29:40;;;;;;;7.28;1.48;;;17.20;99.90;;;;;;4973270;28;20049;-92
2022/07/16 08:32:06;;;;;;;6.47;1.33;;;17.40;99.90;;;;;;4964168;28;20125;-91
2022/07/16 08:34:32;;;;;;;7.85;1.58;;;17.00;99.90;;;;;;4967641;28;20193;-92
2022/07/16 08:36:57;;;;;;;7.35;1.50;;;17.10;99.90;;;;;;4983589;28;20039;-91
2022/07/16 08:39:23;;;;;;;6.63;1.75;;;17.10;99.90;;;;;;4964401;28;20198;-88
2022/07/16 08:41:50;;;;;;;10.02;2.17;;;18.10;99.90;;;;;;4972862;28;20100;-88
2022/07/16 08:44:15;;;;;;;6.50;1.40;;;17.20;99.90;;;;;;4974005;28;20116;-88
2022/07/16 08:46:42;;;;;;;6.85;1.52;;;17.20;99.90;;;;;;4941140;28;20093;-87
2022/07/16 08:49:08;;;;;;;11.15;1.73;;;17.10;99.90;;;;;;4972762;28;20042;-88
2022/07/16 08:51:37;;;;;;;7.93;1.70;;;17.10;99.90;;;;;;4985972;28;20093;-88
2022/07/16 08:54:13;;;;;;;8.73;1.98;;;17.10;99.90;;;;;;4988868;28;20093;-88
2022/07/16 08:56:41;;;;;;;6.32;1.60;;;17.00;99.90;;;;;;4989467;28;20053;-87
2022/07/16 08:59:07;;;;;;;8.15;2.05;;;17.00;99.90;;;;;;4987270;28;20057;-88
2022/07/16 09:01:33;;;;;;;9.68;1.60;;;17.00;99.90;;;;;;4967340;28;20053;-89
2022/07/16 09:04:00;;;;;;;8.27;1.83;;;17.10;99.90;;;;;;4983274;28;20562;-90
2022/07/16 09:06:26;;;;;;;19.80;2.75;;;17.10;99.90;;;;;;4989268;28;20188;-88
2022/07/16 09:08:53;;;;;;;8.27;1.60;;;17.20;99.90;;;;;;4971118;28;20034;-89
2022/07/16 09:11:21;;;;;;;14.20;2.10;;;17.30;99.90;;;;;;4982037;28;20054;-89
2022/07/16 09:14:04;;;;;;;9.73;1.70;;;17.50;99.90;;;;;;4984707;28;20042;-88
2022/07/16 09:16:37;;;;;;;8.75;1.90;;;17.80;99.90;;;;;;4996282;28;20347;-89
2022/07/16 09:19:15;;;;;;;4.85;1.20;;;17.70;99.90;;;;;;4980676;28;20038;-88
2022/07/16 09:22:06;;;;;;;8.95;1.75;;;17.70;99.90;;;;;;4975629;28;20562;-89
2022/07/16 09:24:32;;;;;;;6.50;1.70;;;17.50;99.90;;;;;;4991728;28;20050;-89
2022/07/16 09:27:09;;;;;;;7.03;1.52;;;17.40;99.90;;;;;;4996932;28;20169;-88
2022/07/16 09:30:02;;;;;;;8.63;1.52;;;17.40;99.90;;;;;;4989484;28;20046;-89
2022/07/16 09:32:39;;;;;;;7.00;1.30;;;17.80;99.90;;;;;;4991460;28;20038;-89
2022/07/16 09:35:10;;;;;;;7.50;1.67;;;18.00;99.90;;;;;;4979028;28;20034;-89
2022/07/16 09:37:56;;;;;;;5.93;1.40;;;18.40;99.90;;;;;;4971897;28;20046;-89
2022/07/16 09:40:31;;;;;;;6.72;1.58;;;18.30;99.90;;;;;;4979468;28;20046;-88
2022/07/16 09:42:58;;;;;;;8.40;1.67;;;18.40;99.90;;;;;;4974989;28;20049;-89
2022/07/16 09:45:23;;;;;;;6.47;1.60;;;18.60;99.90;;;;;;4997777;28;20045;-89
2022/07/16 09:47:49;;;;;;;5.53;1.38;;;18.60;99.90;;;;;;4990649;28;20041;-88
2022/07/16 09:50:15;;;;;;;6.35;1.60;;;18.50;99.90;;;;;;4973598;28;20034;-88
2022/07/16 09:52:41;;;;;;;7.97;1.50;;;17.70;99.90;;;;;;4987030;28;20061;-89
2022/07/16 09:55:08;;;;;;;6.13;1.42;;;18.50;99.90;;;;;;4976940;28;20048;-88
2022/07/16 09:57:34;;;;;;;6.50;1.52;;;18.70;99.90;;;;;;4957158;28;20038;-88
2022/07/16 10:00:00;;;;;;;6.30;1.48;;;18.90;99.90;;;;;;4967805;28;20125;-89
2022/07/16 10:02:27;;;;;;;8.52;1.75;;;19.20;99.90;;;;;;4959886;28;20093;-90
2022/07/16 10:04:53;;;;;;;6.90;1.50;;;19.30;99.90;;;;;;4992329;28;20225;-89
2022/07/16 10:07:19;;;;;;;5.45;1.38;;;19.00;99.90;;;;;;4989268;28;20070;-89
2022/07/16 10:09:45;;;;;;;6.25;1.52;;;18.50;99.90;;;;;;4956640;28;20089;-90
2022/07/16 10:12:13;;;;;;;9.27;1.75;;;18.30;99.90;;;;;;4971758;28;20133;-89
2022/07/16 10:14:47;;;;;;;6.45;1.70;;;18.40;99.90;;;;;;4960015;28;20479;-89
2022/07/16 10:17:34;;;;;;;7.13;1.70;;;18.50;99.90;;;;;;4990525;28;20073;-90
2022/07/16 10:20:09;;;;;;;9.77;1.85;;;18.50;99.90;;;;;;4985100;28;20046;-89
2022/07/16 10:22:40;;;;;;;8.02;1.48;;;18.30;99.90;;;;;;4988123;28;20409;-89
2022/07/16 10:25:24;;;;;;;6.03;1.50;;;18.20;99.90;;;;;;4975362;28;20041;-89
2022/07/16 10:27:50;;;;;;;9.43;1.67;;;18.50;99.90;;;;;;4973717;28;20121;-90
2022/07/16 10:30:22;;;;;;;4.90;1.30;;;18.70;99.90;;;;;;4991642;28;20498;-88
2022/07/16 10:33:00;;;;;;;7.35;1.75;;;19.00;99.90;;;;;;4975698;28;20376;-90
2022/07/16 10:35:30;;;;;;;9.00;1.60;;;18.90;99.90;;;;;;4991376;28;20042;-89
2022/07/16 10:38:11;;;;;;;9.77;1.88;;;18.60;99.90;;;;;;4971913;28;20031;-88
2022/07/16 10:40:41;;;;;;;11.23;1.80;;;18.80;99.90;;;;;;4991498;28;20049;-89
2022/07/16 10:43:21;;;;;;;9.15;1.70;;;19.00;99.90;;;;;;4988128;28;20073;-88
2022/07/16 10:45:54;;;;;;;9.23;1.75;;;19.10;99.90;;;;;;4991584;28;20038;-88
2022/07/16 10:48:21;;;;;;;11.00;1.67;;;19.20;99.90;;;;;;4990698;28;20038;-90
2022/07/16 10:51:10;;;;;;;6.30;1.40;;;19.40;99.90;;;;;;4959307;28;20038;-88
2022/07/16 10:53:58;;;;;;;6.93;1.48;;;19.40;99.90;;;;;;4991467;28;20042;-89
2022/07/16 10:56:44;;;;;;;7.47;1.60;;;19.30;99.90;;;;;;4990213;28;20078;-89
2022/07/16 10:59:13;;;;;;;6.20;1.45;;;19.30;99.90;;;;;;4968601;28;20038;-89
2022/07/16 11:01:41;;;;;;;8.43;1.70;;;19.50;99.90;;;;;;4978976;28;20046;-89
2022/07/16 11:04:08;;;;;;;7.95;1.52;;;19.70;99.90;;;;;;4997156;28;20125;-88
2022/07/16 11:06:34;;;;;;;5.63;1.40;;;19.80;99.90;;;;;;4971107;28;20054;-89
2022/07/16 11:09:03;;;;;;;6.90;1.50;;;19.90;99.90;;;;;;4957274;28;20044;-89
2022/07/16 11:11:40;;;;;;;7.15;1.60;;;20.00;99.90;;;;;;4971740;28;20050;-90
2022/07/16 11:14:07;;;;;;;8.95;1.67;;;20.20;99.90;;;;;;4973752;28;20054;-88
2022/07/16 11:16:33;;;;;;;7.43;1.70;;;20.00;99.90;;;;;;4990899;28;20414;-89
2022/07/16 11:19:00;;;;;;;7.25;1.52;;;19.70;99.90;;;;;;4959132;28;20030;-90
2022/07/16 11:21:26;;;;;;;7.72;1.55;;;19.70;99.90;;;;;;4988850;28;20486;-88
2022/07/16 11:23:54;;;;;;;6.72;1.50;;;19.70;99.90;;;;;;4955150;28;20042;-90
2022/07/16 11:26:21;;;;;;;16.42;1.90;;;19.40;99.90;;;;;;4993173;28;20050;-89
2022/07/16 11:29:01;;;;;;;7.13;1.60;;;19.30;99.90;;;;;;4960479;28;20395;-89
2022/07/16 11:31:32;;;;;;;8.15;1.48;;;19.60;99.90;;;;;;4987304;28;20045;-89
2022/07/16 11:34:08;;;;;;;7.20;1.80;;;19.80;99.90;;;;;;4982109;28;20073;-89
2022/07/16 11:36:44;;;;;;;5.50;1.42;;;20.10;99.90;;;;;;4991234;28;20038;-89
2022/07/16 11:39:13;;;;;;;4.72;1.38;;;20.20;99.90;;;;;;4980812;28;20113;-90
2022/07/16 11:41:58;;;;;;;5.40;1.45;;;20.40;99.90;;;;;;4989957;28;20038;-91
2022/07/16 11:44:30;;;;;;;6.43;1.60;;;20.50;99.90;;;;;;4968999;28;20034;-89
2022/07/16 11:47:03;;;;;;;9.60;1.50;;;20.50;99.90;;;;;;4985447;28;20038;-89
2022/07/16 11:49:31;;;;;;;7.05;1.55;;;20.50;99.90;;;;;;4989910;28;20722;-89
2022/07/16 11:52:21;;;;;;;6.20;1.38;;;20.10;99.90;;;;;;4989142;28;20125;-90
2022/07/16 11:54:47;;;;;;;5.32;1.50;;;19.80;99.90;;;;;;4973813;28;20521;-90
2022/07/16 11:57:13;;;;;;;6.97;1.40;;;19.80;99.90;;;;;;4974094;28;20062;-89
2022/07/16 11:59:48;;;;;;;4.60;1.23;;;19.80;99.90;;;;;;4957687;28;20132;-90
2022/07/16 12:02:18;;;;;;;3.70;0.95;;;19.90;99.90;;;;;;4989397;28;20108;-89
2022/07/16 12:04:49;;;;;;;8.73;2.00;;;20.10;99.90;;;;;;4973373;28;20046;-88
2022/07/16 12:07:23;;;;;;;4.93;1.10;;;20.10;99.90;;;;;;4973641;28;20773;-89
2022/07/16 12:09:49;;;;;;;6.13;1.60;;;20.20;99.90;;;;;;4989583;28;20053;-89
2022/07/16 12:12:22;;;;;;;5.75;1.40;;;20.40;99.90;;;;;;4989075;28;20200;-90
2022/07/16 12:14:53;;;;;;;5.75;1.45;;;20.60;99.90;;;;;;4989888;28;20550;-90
2022/07/16 12:17:31;;;;;;;6.28;1.50;;;20.30;99.90;;;;;;4990230;28;20070;-89
2022/07/16 12:20:08;;;;;;;5.55;1.27;;;20.20;99.90;;;;;;4990232;28;20057;-89
2022/07/16 12:22:53;;;;;;;8.27;1.38;;;20.20;99.90;;;;;;4986566;28;20045;-89
2022/07/16 12:25:31;;;;;;;10.05;1.85;;;20.10;99.90;;;;;;4989769;28;20507;-90
2022/07/16 12:28:06;;;;;;;8.40;1.48;;;20.30;99.90;;;;;;4980397;28;20042;-89
2022/07/16 12:30:40;;;;;;;7.50;1.50;;;20.10;99.90;;;;;;4994458;28;20046;-89
2022/07/16 12:33:23;;;;;;;7.35;1.70;;;19.80;99.90;;;;;;4972450;28;20503;-90
2022/07/16 12:36:02;;;;;;;6.03;1.50;;;20.20;99.90;;;;;;4977672;28;20118;-91
2022/07/16 12:38:50;;;;;;;6.13;1.48;;;19.90;99.90;;;;;;4996001;28;20039;-90
2022/07/16 12:41:19;;;;;;;6.28;1.70;;;19.60;99.90;;;;;;4974569;28;20057;-89
2022/07/16 12:43:53;;;;;;;8.65;1.88;;;19.70;99.90;;;;;;4974674;28;20046;-89
2022/07/16 12:46:21;;;;;;;5.90;1.50;;;19.90;99.90;;;;;;4973140;28;20523;-89
2022/07/16 12:48:50;;;;;;;7.00;1.63;;;20.10;99.90;;;;;;4973213;28;20042;-89
2022/07/16 12:51:21;;;;;;;8.90;1.65;;;20.10;99.90;;;;;;4988368;28;20034;-88
2022/07/16 12:53:48;;;;;;;8.23;1.75;;;20.20;99.90;;;;;;4973446;28;20125;-90
2022/07/16 12:59:03;;;;;;;6.03;1.48;;;19.80;99.90;;;;;;4989288;28;20042;-89